Time;durP1;ratioP1;P1;durP2;ratioP2;P2;SDS_P1;SDS_P2;PMS_P1;PMS_P2;Temp;Humidity;BMP_temperature;BMP_pressure;BME280_temperature;BME280_humidity;BME280_pressure;Samples;Min_cycle;Max_cycle;Signal;HPM_P1;HPM_P2
2022/10/02 00:00:11;;;;;;;7.45;2.28;;;;;;;12.84;100.00;100778.47;5007232;28;20056;-48
2022/10/02 00:02:46;;;;;;;4.85;1.63;;;;;;;12.86;100.00;100775.63;4998710;28;20026;-49
2022/10/02 00:05:29;;;;;;;9.45;0.95;;;;;;;12.86;100.00;100780.94;5005595;28;20120;-48
2022/10/02 00:08:13;;;;;;;13.82;2.00;;;;;;;12.82;100.00;100772.50;5008819;28;20095;-48
2022/10/02 00:10:50;;;;;;;3.97;1.70;;;;;;;12.82;100.00;100777.84;5008682;28;20077;-49
2022/10/02 00:13:25;;;;;;;9.65;0.57;;;;;;;12.81;100.00;100778.06;5007067;28;20035;-52
2022/10/02 00:15:53;;;;;;;6.10;0.88;;;;;;;12.82;100.00;100771.69;5009000;28;20071;-48
2022/10/02 00:18:46;;;;;;;4.97;1.15;;;;;;;12.86;100.00;100779.09;5009219;28;20544;-50
2022/10/02 00:21:33;;;;;;;4.25;0.65;;;;;;;12.88;100.00;100771.75;5006969;28;20046;-49
2022/10/02 00:24:04;;;;;;;5.43;1.35;;;;;;;12.83;100.00;100773.31;5005186;28;20061;-52
2022/10/02 00:26:51;;;;;;;8.38;0.98;;;;;;;12.80;100.00;100779.06;5009647;28;20503;-52
2022/10/02 00:29:36;;;;;;;11.00;1.58;;;;;;;12.73;100.00;100784.38;5007233;28;20044;-50
2022/10/02 00:32:30;;;;;;;6.22;2.42;;;;;;;12.66;100.00;100794.16;5006108;28;20033;-52
2022/10/02 00:35:20;;;;;;;13.23;2.67;;;;;;;12.66;100.00;100800.28;5004887;28;20030;-51
2022/10/02 00:37:52;;;;;;;6.82;1.20;;;;;;;12.65;100.00;100811.13;5007715;28;20034;-53
2022/10/02 00:40:34;;;;;;;4.97;0.73;;;;;;;12.63;100.00;100813.16;5005164;28;20072;-50
2022/10/02 00:43:04;;;;;;;2.08;0.45;;;;;;;12.66;100.00;100812.78;5006544;28;20090;-50
2022/10/02 00:45:38;;;;;;;7.43;1.02;;;;;;;12.62;100.00;100814.16;5008424;28;20068;-48
2022/10/02 00:48:15;;;;;;;6.03;0.22;;;;;;;12.67;100.00;100811.75;5007770;28;20034;-48
2022/10/02 00:50:54;;;;;;;9.32;1.27;;;;;;;12.64;100.00;100812.13;5003925;28;20030;-53
2022/10/02 00:53:26;;;;;;;5.32;1.63;;;;;;;12.59;100.00;100815.38;5005535;28;20034;-49
2022/10/02 00:56:09;;;;;;;3.30;0.60;;;;;;;12.55;100.00;100818.66;5005020;28;20056;-52
2022/10/02 00:58:56;;;;;;;12.90;1.63;;;;;;;12.52;100.00;100816.34;5007880;28;20029;-51
2022/10/02 01:01:31;;;;;;;3.88;0.50;;;;;;;12.47;100.00;100811.66;5005244;28;20065;-49
2022/10/02 01:03:56;;;;;;;4.80;1.13;;;;;;;12.44;100.00;100817.31;5007532;28;20125;-51
2022/10/02 01:06:26;;;;;;;6.82;1.35;;;;;;;12.47;100.00;100814.31;5005469;28;20117;-53
2022/10/02 01:08:51;;;;;;;10.65;1.48;;;;;;;12.52;100.00;100817.19;5009650;28;20030;-52
2022/10/02 01:11:18;;;;;;;8.32;0.60;;;;;;;12.50;100.00;100808.59;5011552;28;20434;-52
2022/10/02 01:13:44;;;;;;;8.65;1.30;;;;;;;12.46;100.00;100814.50;5011631;28;20041;-52
2022/10/02 01:16:11;;;;;;;9.50;0.73;;;;;;;12.42;100.00;100812.22;5010929;28;20052;-53
2022/10/02 01:18:37;;;;;;;8.05;2.10;;;;;;;12.42;100.00;100817.53;5009598;28;20050;-50
2022/10/02 01:21:23;;;;;;;3.85;1.15;;;;;;;12.46;100.00;100819.81;5019536;28;20136;-48
2022/10/02 01:24:04;;;;;;;3.28;0.30;;;;;;;12.43;100.00;100824.50;5011538;28;20449;-52
2022/10/02 01:26:30;;;;;;;6.72;1.55;;;;;;;12.38;100.00;100837.53;5017291;28;20175;-50
2022/10/02 01:28:56;;;;;;;4.80;0.50;;;;;;;12.36;100.00;100828.13;5009060;28;20048;-50
2022/10/02 01:31:23;;;;;;;3.90;0.80;;;;;;;12.34;100.00;100836.31;5007046;28;20033;-50
2022/10/02 01:33:50;;;;;;;6.65;1.15;;;;;;;12.41;100.00;100839.81;5014523;28;20177;-49
2022/10/02 01:36:16;;;;;;;6.75;0.57;;;;;;;12.41;100.00;100834.50;5012066;28;20374;-51
2022/10/02 01:38:43;;;;;;;9.05;1.13;;;;;;;12.40;100.00;100832.88;5007225;28;20038;-51
2022/10/02 01:41:11;;;;;;;4.57;0.77;;;;;;;12.41;100.00;100831.03;5014011;28;20038;-48
2022/10/02 01:43:40;;;;;;;4.00;0.70;;;;;;;12.43;100.00;100834.31;5011276;28;20108;-48
2022/10/02 01:46:21;;;;;;;7.53;1.27;;;;;;;12.44;100.00;100827.97;5008952;28;20026;-50
2022/10/02 01:48:52;;;;;;;6.15;1.15;;;;;;;12.46;100.00;100835.75;5010209;28;20173;-49
2022/10/02 01:51:19;;;;;;;2.92;1.10;;;;;;;12.41;100.00;100837.16;5008580;28;20060;-48
2022/10/02 01:54:26;;;;;;;5.05;1.60;;;;;;;12.37;100.00;100843.91;5007966;28;20088;-48
2022/10/02 01:57:19;;;;;;;7.50;1.58;;;;;;;12.29;100.00;100846.72;5007212;28;20069;-48
2022/10/02 01:59:56;;;;;;;7.75;1.00;;;;;;;12.24;100.00;100862.41;5009350;28;20045;-50
2022/10/02 02:02:46;;;;;;;6.53;0.70;;;;;;;12.17;100.00;100859.69;5010541;28;20022;-49
2022/10/02 02:05:22;;;;;;;3.95;0.35;;;;;;;12.19;100.00;100862.16;5006975;28;20033;-47
2022/10/02 02:07:57;;;;;;;7.22;1.30;;;;;;;12.23;100.00;100864.22;5008356;28;20033;-48
2022/10/02 02:10:28;;;;;;;8.25;1.00;;;;;;;12.23;100.00;100864.22;5011116;28;20057;-48
2022/10/02 02:13:14;;;;;;;6.88;0.55;;;;;;;12.22;100.00;100869.75;5005605;28;20391;-50
2022/10/02 02:15:50;;;;;;;8.45;1.55;;;;;;;12.24;100.00;100870.38;5002982;28;20058;-48
2022/10/02 02:18:30;;;;;;;4.03;0.52;;;;;;;12.19;100.00;100859.50;5001371;28;20109;-50
2022/10/02 02:21:03;;;;;;;5.43;0.90;;;;;;;12.12;100.00;100856.78;5009267;28;20038;-49
2022/10/02 02:23:32;;;;;;;6.97;1.23;;;;;;;12.13;100.00;100860.25;5007041;28;20034;-49
2022/10/02 02:26:03;;;;;;;9.98;1.25;;;;;;;12.14;100.00;100854.75;5007011;28;20049;-51
2022/10/02 02:28:32;;;;;;;6.95;1.15;;;;;;;12.13;100.00;100858.44;5006709;28;20025;-50
2022/10/02 02:31:00;;;;;;;10.55;1.38;;;;;;;12.12;100.00;100862.09;5007362;28;20025;-50
2022/10/02 02:33:37;;;;;;;0.88;0.22;;;;;;;12.07;100.00;100856.53;5002474;28;20095;-50
2022/10/02 02:36:11;;;;;;;3.90;1.10;;;;;;;11.99;100.00;100852.19;5009707;28;20080;-53
2022/10/02 02:38:41;;;;;;;5.97;0.70;;;;;;;11.95;100.00;100856.25;5011343;28;20037;-52
2022/10/02 02:41:13;;;;;;;7.75;1.27;;;;;;;11.90;100.00;100856.00;5010010;28;20096;-50
2022/10/02 02:43:55;;;;;;;4.75;0.65;;;;;;;11.89;100.00;100862.31;5004179;28;20458;-49
2022/10/02 02:49:58;;;;;;;3.25;0.40;;;;;;;11.95;100.00;100880.16;4944125;28;19922;-48
2022/10/02 02:52:36;;;;;;;4.38;0.88;;;;;;;11.93;100.00;100876.06;4993585;28;20129;-48
2022/10/02 02:55:33;;;;;;;4.18;0.20;;;;;;;11.87;100.00;100879.44;5008361;28;20030;-48
2022/10/02 02:58:22;;;;;;;4.30;0.70;;;;;;;11.86;100.00;100878.63;5001237;28;20520;-50
2022/10/02 03:00:48;;;;;;;7.68;2.38;;;;;;;11.87;100.00;100887.41;5005148;28;20103;-48
2022/10/02 03:03:13;;;;;;;8.80;1.10;;;;;;;11.86;100.00;100883.94;5007690;28;20029;-49
2022/10/02 03:05:45;;;;;;;6.93;1.10;;;;;;;11.88;100.00;100879.28;5010458;28;20029;-48
2022/10/02 03:08:25;;;;;;;6.38;0.60;;;;;;;11.84;100.00;100893.91;5005384;28;20040;-50
2022/10/02 03:11:14;;;;;;;5.35;0.88;;;;;;;11.80;100.00;100884.69;5007065;28;20040;-48
2022/10/02 03:14:08;;;;;;;2.83;0.30;;;;;;;11.74;100.00;100883.56;5013616;28;20464;-49
2022/10/02 03:16:51;;;;;;;5.47;0.95;;;;;;;11.70;100.00;100876.19;5004632;28;20050;-48
2022/10/02 03:19:49;;;;;;;5.68;0.32;;;;;;;11.69;100.00;100883.31;5009369;28;20033;-50
2022/10/02 03:22:49;;;;;;;4.47;1.65;;;;;;;11.63;100.00;100876.13;5007908;28;20084;-53
2022/10/02 03:25:25;;;;;;;4.05;0.30;;;;;;;11.58;100.00;100874.00;5007250;28;20085;-50
2022/10/02 03:28:00;;;;;;;4.35;1.17;;;;;;;11.61;100.00;100874.66;5004859;28;20117;-51
2022/10/02 03:30:27;;;;;;;1.88;1.30;;;;;;;11.63;100.00;100881.44;5008893;28;20049;-49
2022/10/02 03:32:55;;;;;;;3.85;0.60;;;;;;;11.64;100.00;100887.56;5017422;28;20030;-52
2022/10/02 03:35:22;;;;;;;3.83;0.65;;;;;;;11.68;100.00;100889.66;5013737;28;20057;-50
2022/10/02 03:37:51;;;;;;;6.68;0.82;;;;;;;11.65;100.00;100890.03;5018274;28;20471;-53
2022/10/02 03:40:21;;;;;;;5.93;1.33;;;;;;;11.67;100.00;100884.53;5015491;28;20041;-49
2022/10/02 03:42:47;;;;;;;5.07;1.75;;;;;;;11.65;100.00;100891.88;5013805;28;20037;-51
2022/10/02 03:45:12;;;;;;;5.07;0.77;;;;;;;11.59;100.00;100888.16;5014720;28;20026;-52
2022/10/02 03:47:38;;;;;;;6.13;0.32;;;;;;;11.57;100.00;100885.66;5019043;28;20471;-52
2022/10/02 03:50:03;;;;;;;5.07;0.75;;;;;;;11.54;100.00;100886.03;5016198;28;20426;-49
2022/10/02 03:52:31;;;;;;;6.53;0.85;;;;;;;11.55;100.00;100887.69;5013905;28;20041;-48
2022/10/02 03:55:03;;;;;;;2.42;0.35;;;;;;;11.56;100.00;100893.81;5014651;28;20477;-50
2022/10/02 03:57:32;;;;;;;6.43;1.05;;;;;;;11.57;100.00;100895.47;5007083;28;20017;-50
2022/10/02 04:00:11;;;;;;;3.30;0.93;;;;;;;11.65;100.00;100898.00;5013950;28;20108;-49
2022/10/02 04:02:49;;;;;;;3.53;1.92;;;;;;;11.59;100.00;100888.16;5012813;28;20041;-51
2022/10/02 04:05:39;;;;;;;8.95;2.08;;;;;;;11.56;100.00;100909.75;5007798;28;20061;-50
2022/10/02 04:08:15;;;;;;;7.07;1.52;;;;;;;11.56;100.00;100921.22;5006070;28;20479;-48
2022/10/02 04:10:49;;;;;;;1.90;0.43;;;;;;;11.55;100.00;100922.19;5015138;28;20038;-54
2022/10/02 04:13:25;;;;;;;6.90;0.80;;;;;;;11.52;100.00;100909.31;5019119;28;20026;-48
2022/10/02 04:16:06;;;;;;;3.30;0.68;;;;;;;11.53;100.00;100913.59;5009356;28;20064;-49
2022/10/02 04:18:46;;;;;;;1.77;0.65;;;;;;;11.53;100.00;100926.88;5009188;28;20034;-49
2022/10/02 04:21:33;;;;;;;15.75;1.08;;;;;;;11.49;100.00;100924.78;5015416;28;20034;-50
2022/10/02 04:24:32;;;;;;;9.35;1.10;;;;;;;11.46;100.00;100926.00;5012276;28;20049;-49
2022/10/02 04:27:13;;;;;;;6.90;0.75;;;;;;;11.52;100.00;100938.50;5013669;28;20123;-50
2022/10/02 04:29:54;;;;;;;1.48;0.52;;;;;;;11.51;100.00;100938.69;5009432;28;20030;-49
2022/10/02 04:32:31;;;;;;;4.10;1.55;;;;;;;11.51;100.00;100939.53;5007467;28;20049;-50
2022/10/02 04:34:58;;;;;;;5.63;0.85;;;;;;;11.49;100.00;100940.72;5009407;28;20613;-49
2022/10/02 04:38:01;;;;;;;5.05;0.38;;;;;;;11.48;100.00;100944.38;5012271;28;20027;-48
2022/10/02 04:40:49;;;;;;;6.70;0.50;;;;;;;11.39;100.00;100948.97;5007443;28;20065;-50
2022/10/02 04:43:33;;;;;;;8.23;1.48;;;;;;;11.34;100.00;100940.75;5011457;28;20037;-52
2022/10/02 04:45:58;;;;;;;5.88;0.25;;;;;;;11.25;100.00;100934.69;5002236;28;20559;-48
2022/10/02 04:48:51;;;;;;;5.43;0.20;;;;;;;11.23;100.00;100934.06;5007456;28;20443;-48
2022/10/02 04:51:28;;;;;;;5.63;1.43;;;;;;;11.23;100.00;100936.72;5010191;28;20029;-48
2022/10/02 04:53:56;;;;;;;1.20;0.20;;;;;;;11.26;100.00;100944.31;5012318;28;20399;-49
2022/10/02 04:56:36;;;;;;;5.13;0.75;;;;;;;11.22;100.00;100950.16;5004059;28;20092;-53
2022/10/02 04:59:05;;;;;;;3.10;0.30;;;;;;;11.16;100.00;100940.28;5003992;28;20053;-48
2022/10/02 05:01:39;;;;;;;4.80;1.23;;;;;;;11.14;100.00;100946.59;5005779;28;20030;-54
2022/10/02 05:04:32;;;;;;;4.25;0.70;;;;;;;11.10;100.00;100942.69;5006104;28;20276;-49
2022/10/02 05:07:45;;;;;;;2.85;0.93;;;;;;;11.07;100.00;100952.81;5005069;28;20510;-53
2022/10/02 05:10:52;;;;;;;3.80;0.32;;;;;;;11.04;100.00;100948.69;5003577;28;20519;-48
2022/10/02 05:13:20;;;;;;;2.45;0.75;;;;;;;11.01;100.00;100948.25;5009969;28;20044;-47
2022/10/02 05:15:49;;;;;;;4.03;1.33;;;;;;;11.01;100.00;100954.38;5011796;28;20108;-53
2022/10/02 05:18:18;;;;;;;3.65;1.10;;;;;;;11.02;100.00;100950.72;5011846;28;20049;-51
2022/10/02 05:21:04;;;;;;;3.85;0.45;;;;;;;11.03;100.00;100952.38;5012244;28;20025;-50
2022/10/02 05:23:39;;;;;;;5.07;1.30;;;;;;;11.01;100.00;100957.03;5014278;28;20052;-49
2022/10/02 05:26:33;;;;;;;4.22;0.90;;;;;;;11.04;100.00;100954.00;5011972;28;20131;-51
2022/10/02 05:29:18;;;;;;;2.17;0.73;;;;;;;11.03;100.00;100956.84;5008169;28;20038;-50
2022/10/02 05:31:49;;;;;;;3.40;0.28;;;;;;;11.00;100.00;100962.53;5014318;28;20034;-50
2022/10/02 05:34:30;;;;;;;0.50;0.32;;;;;;;11.05;100.00;100979.56;5010767;28;20053;-53
2022/10/02 05:37:24;;;;;;;8.23;2.75;;;;;;;11.04;100.00;100983.19;5010591;28;20821;-53
2022/10/02 05:39:58;;;;;;;3.80;1.33;;;;;;;11.00;100.00;100991.72;5015437;28;20034;-49
2022/10/02 05:42:53;;;;;;;2.55;0.30;;;;;;;10.97;100.00;100984.94;5013592;28;20033;-48
2022/10/02 05:45:49;;;;;;;8.10;2.30;;;;;;;10.99;100.00;101001.47;5009665;28;20041;-50
2022/10/02 05:48:25;;;;;;;2.65;0.75;;;;;;;10.96;100.00;101017.78;5001238;28;20367;-50
2022/10/02 05:51:22;;;;;;;4.70;0.30;;;;;;;10.92;100.00;101024.47;5012693;28;20029;-50
2022/10/02 05:54:02;;;;;;;4.30;0.30;;;;;;;10.87;100.00;101022.34;5006862;28;20487;-51
2022/10/02 05:56:36;;;;;;;9.73;0.98;;;;;;;10.86;100.00;101023.31;5005617;28;20484;-51
2022/10/02 05:59:11;;;;;;;3.88;0.55;;;;;;;10.84;100.00;101019.19;5014333;28;20077;-50
2022/10/02 06:01:42;;;;;;;3.97;0.20;;;;;;;10.83;100.00;101021.03;5008410;28;20029;-50
2022/10/02 06:04:29;;;;;;;4.38;0.47;;;;;;;10.84;100.00;101017.41;5000866;28;20022;-50
2022/10/02 06:07:02;;;;;;;4.75;0.73;;;;;;;10.84;100.00;101013.91;5001942;28;20084;-49
2022/10/02 06:09:35;;;;;;;7.15;0.70;;;;;;;10.83;100.00;101015.72;5012727;28;20075;-51
2022/10/02 06:12:11;;;;;;;4.88;1.33;;;;;;;10.82;100.00;101019.41;5006117;28;20368;-50
2022/10/02 06:14:45;;;;;;;3.35;0.28;;;;;;;10.79;100.00;101030.38;5009713;28;20117;-49
2022/10/02 06:17:16;;;;;;;3.58;0.38;;;;;;;10.78;100.00;101038.50;5007497;28;20125;-48
2022/10/02 06:19:57;;;;;;;3.05;0.22;;;;;;;10.76;100.00;101043.97;5005253;28;20076;-48
2022/10/02 06:22:38;;;;;;;4.28;0.45;;;;;;;10.74;100.00;101051.31;5002558;28;20065;-52
2022/10/02 06:25:20;;;;;;;4.13;1.08;;;;;;;10.72;100.00;101049.84;5006200;28;20052;-51
2022/10/02 06:28:11;;;;;;;2.55;0.30;;;;;;;10.71;100.00;101062.25;4997308;28;20045;-51
2022/10/02 06:30:42;;;;;;;1.88;0.65;;;;;;;10.70;100.00;101055.31;4989048;28;20073;-49
2022/10/02 06:33:21;;;;;;;1.67;0.20;;;;;;;10.70;100.00;101053.47;4998772;28;20033;-50
2022/10/02 06:36:02;;;;;;;7.60;0.30;;;;;;;10.83;100.00;101058.16;5000064;28;20392;-49
2022/10/02 06:38:49;;;;;;;0.75;0.63;;;;;;;10.86;100.00;101063.13;5002264;28;20061;-49
2022/10/02 06:41:46;;;;;;;6.57;1.95;;;;;;;10.86;100.00;101059.66;5000864;28;20120;-49
2022/10/02 06:44:15;;;;;;;6.72;1.95;;;;;;;10.87;100.00;101070.09;4998474;28;20041;-47
2022/10/02 06:46:59;;;;;;;9.70;0.63;;;;;;;10.90;100.00;101071.56;5000217;28;20381;-50
2022/10/02 06:49:32;;;;;;;4.78;1.05;;;;;;;10.89;100.00;101069.91;4994105;28;20034;-48
2022/10/02 06:52:14;;;;;;;4.35;1.40;;;;;;;10.84;100.00;101075.75;4996504;28;20030;-48
2022/10/02 06:55:06;;;;;;;1.25;0.10;;;;;;;10.84;100.00;101080.22;5001874;28;20519;-48
2022/10/02 06:57:38;;;;;;;6.18;1.35;;;;;;;10.87;100.00;101080.69;5002391;28;20036;-48
2022/10/02 07:00:13;;;;;;;;;;;;;;;10.90;100.00;101090.94;4995527;28;20034;-51
2022/10/02 07:03:05;;;;;;;3.72;0.77;;;;;;;11.06;100.00;101095.28;4989164;28;20397;-48
2022/10/02 07:05:42;;;;;;;7.22;0.90;;;;;;;11.18;100.00;101102.81;4995224;28;20132;-52
2022/10/02 07:08:30;;;;;;;2.53;0.35;;;;;;;11.20;100.00;101101.63;4999201;28;20426;-50
2022/10/02 07:11:28;;;;;;;6.05;1.40;;;;;;;11.14;100.00;101111.16;4999012;28;20383;-47
2022/10/02 07:14:11;;;;;;;4.47;1.17;;;;;;;11.16;100.00;101116.28;4985674;28;20050;-51
2022/10/02 07:16:59;;;;;;;2.72;0.80;;;;;;;11.21;100.00;101119.22;4992976;28;20048;-49
2022/10/02 07:19:46;;;;;;;9.52;0.95;;;;;;;11.23;100.00;101116.38;4993592;28;20076;-50
2022/10/02 07:22:26;;;;;;;4.75;0.35;;;;;;;11.30;100.00;101119.97;5003038;28;20034;-49
2022/10/02 07:25:00;;;;;;;7.55;1.25;;;;;;;11.30;100.00;101126.09;4999799;28;20037;-49
2022/10/02 07:27:47;;;;;;;6.07;1.58;;;;;;;11.32;100.00;101132.06;4998068;28;20088;-49
2022/10/02 07:30:16;;;;;;;3.80;0.60;;;;;;;11.31;100.00;101135.72;5001220;28;20022;-51
2022/10/02 07:33:04;;;;;;;8.40;0.95;;;;;;;11.34;100.00;101127.41;4998365;28;20041;-54
2022/10/02 07:35:35;;;;;;;5.20;0.63;;;;;;;11.37;100.00;101128.88;4998359;28;20038;-49
2022/10/02 07:38:42;;;;;;;4.45;0.38;;;;;;;11.37;100.00;101134.19;5000297;28;20125;-51
2022/10/02 07:41:40;;;;;;;1.52;0.20;;;;;;;11.36;100.00;101132.53;4993214;28;20030;-53
2022/10/02 07:44:35;;;;;;;3.63;0.32;;;;;;;11.38;100.00;101140.31;5001190;28;22194;-49
2022/10/02 07:47:25;;;;;;;2.20;0.20;;;;;;;11.43;100.00;101148.56;5000963;28;20034;-49
2022/10/02 07:49:55;;;;;;;5.85;0.57;;;;;;;11.49;100.00;101155.81;5000711;28;20034;-50
2022/10/02 07:52:39;;;;;;;4.43;1.23;;;;;;;11.53;100.00;101165.06;5000397;28;20066;-50
2022/10/02 07:55:18;;;;;;;7.45;1.52;;;;;;;11.58;100.00;101162.69;4997846;28;20065;-50
2022/10/02 07:57:48;;;;;;;2.83;0.30;;;;;;;11.62;100.00;101176.44;4995404;28;20041;-50
2022/10/02 08:00:16;;;;;;;7.50;1.35;;;;;;;11.65;100.00;101176.09;4998280;28;20490;-50
2022/10/02 08:02:48;;;;;;;3.40;0.45;;;;;;;11.65;100.00;101176.09;4997270;28;20038;-50
2022/10/02 08:05:20;;;;;;;8.82;1.00;;;;;;;11.72;100.00;101190.28;5000963;28;20056;-49
2022/10/02 08:07:49;;;;;;;6.28;0.45;;;;;;;11.85;100.00;101192.31;5005958;28;20633;-51
2022/10/02 08:10:20;;;;;;;3.85;0.68;;;;;;;11.95;100.00;101209.69;5009324;28;20022;-49
2022/10/02 08:12:55;;;;;;;6.75;1.10;;;;;;;12.04;100.00;101205.09;5007901;28;20053;-48
2022/10/02 08:15:23;;;;;;;2.58;0.73;;;;;;;12.11;100.00;101207.88;5000528;28;20034;-48
2022/10/02 08:17:56;;;;;;;3.72;0.38;;;;;;;12.16;100.00;101210.78;5009892;28;20026;-49
2022/10/02 08:20:37;;;;;;;8.13;1.75;;;;;;;12.21;100.00;101221.72;5004486;28;20128;-50
2022/10/02 08:23:06;;;;;;;7.07;0.63;;;;;;;12.25;100.00;101225.63;5008399;28;20037;-53
2022/10/02 08:25:52;;;;;;;3.63;0.40;;;;;;;12.29;100.00;101232.25;5007506;28;20121;-55
2022/10/02 08:28:30;;;;;;;3.42;0.73;;;;;;;12.29;100.00;101242.88;5009149;28;20038;-50
2022/10/02 08:30:57;;;;;;;1.15;0.75;;;;;;;12.32;100.00;101245.16;5013470;28;20041;-49
2022/10/02 08:33:23;;;;;;;8.98;1.80;;;;;;;12.37;100.00;101242.78;5010867;28;20198;-53
2022/10/02 08:36:00;;;;;;;7.65;0.77;;;;;;;12.41;100.00;101241.38;4997082;28;20117;-52
2022/10/02 08:38:40;;;;;;;8.57;1.48;;;;;;;12.51;100.00;101245.59;5001553;28;20141;-51
2022/10/02 08:41:30;;;;;;;8.75;0.70;;;;;;;12.57;100.00;101250.19;5004995;28;20045;-52
2022/10/02 08:44:16;;;;;;;9.43;1.90;;;;;;;12.62;100.00;101239.81;5004374;28;20049;-52
2022/10/02 08:47:15;;;;;;;3.80;0.60;;;;;;;12.67;100.00;101245.41;5002268;28;20128;-53
2022/10/02 08:50:18;;;;;;;4.82;0.45;;;;;;;12.73;100.00;101241.19;5003431;28;20050;-50
2022/10/02 08:53:07;;;;;;;1.90;0.63;;;;;;;12.79;100.00;101243.91;5003752;28;20037;-54
2022/10/02 08:56:02;;;;;;;3.35;0.93;;;;;;;12.85;100.00;101239.66;5003120;28;20041;-53
2022/10/02 08:58:49;;;;;;;1.45;0.35;;;;;;;12.93;100.00;101238.75;4997786;28;20038;-48
2022/10/02 09:01:45;;;;;;;7.28;1.05;;;;;;;12.99;100.00;101244.16;5003128;28;20046;-49
2022/10/02 09:04:37;;;;;;;5.55;0.50;;;;;;;13.04;100.00;101247.06;4999275;28;20065;-50
2022/10/02 09:07:20;;;;;;;6.85;0.75;;;;;;;13.06;100.00;101245.03;5002442;28;20483;-48
2022/10/02 09:10:01;;;;;;;3.33;1.02;;;;;;;13.12;100.00;101259.44;5001379;28;20041;-52
2022/10/02 09:12:42;;;;;;;5.00;1.25;;;;;;;13.15;100.00;101247.59;4999254;28;20030;-51
2022/10/02 09:15:31;;;;;;;7.10;0.20;;;;;;;13.22;100.00;101259.13;5003106;28;20042;-48
2022/10/02 09:18:22;;;;;;;3.25;0.22;;;;;;;13.26;100.00;101263.91;5003073;28;20022;-48
2022/10/02 09:21:06;;;;;;;3.45;0.85;;;;;;;13.26;100.00;101263.06;5001261;28;20061;-51
2022/10/02 09:24:08;;;;;;;2.85;0.43;;;;;;;13.27;100.00;101254.91;5003025;28;20050;-49
2022/10/02 09:26:49;;;;;;;;;;;;;;;13.30;100.00;101259.84;5004940;28;20312;-54
2022/10/02 09:29:39;;;;;;;11.27;1.10;;;;;;;13.36;100.00;101254.78;5003585;28;19924;-49
2022/10/02 09:32:27;;;;;;;5.97;0.95;;;;;;;13.46;100.00;101265.94;5004580;28;20444;-50
2022/10/02 09:35:35;;;;;;;6.70;0.82;;;;;;;13.60;100.00;101278.34;5001853;28;20026;-50
2022/10/02 09:38:20;;;;;;;8.43;1.38;;;;;;;13.72;100.00;101263.50;5005348;28;20463;-50
2022/10/02 09:40:57;;;;;;;10.98;0.80;;;;;;;13.76;100.00;101255.97;5004029;28;20770;-50
2022/10/02 09:43:42;;;;;;;6.63;0.93;;;;;;;13.87;100.00;101275.94;4994065;28;20056;-55
2022/10/02 09:46:10;;;;;;;5.72;1.10;;;;;;;13.93;100.00;101275.16;4997231;28;20034;-48
2022/10/02 09:49:24;;;;;;;14.52;1.30;;;;;;;13.86;100.00;101272.44;5000888;28;20026;-50
2022/10/02 09:52:08;;;;;;;4.80;1.27;;;;;;;13.94;100.00;101287.47;4984092;28;20377;-50
2022/10/02 09:55:04;;;;;;;3.90;0.82;;;;;;;14.06;100.00;101272.56;4989427;28;20137;-59
2022/10/02 09:57:35;;;;;;;5.20;1.35;;;;;;;14.11;100.00;101272.00;4981217;28;20529;-55
2022/10/02 10:00:17;;;;;;;3.65;0.25;;;;;;;14.04;100.00;101285.28;4978181;28;20415;-52
2022/10/02 10:03:01;;;;;;;8.27;1.65;;;;;;;14.04;100.00;101285.28;4990821;28;20049;-54
2022/10/02 10:05:33;;;;;;;3.33;1.13;;;;;;;14.02;100.00;101273.16;4992187;28;20040;-57
2022/10/02 10:08:36;;;;;;;6.10;0.70;;;;;;;13.90;100.00;101256.88;4985732;28;20225;-54
2022/10/02 10:11:11;;;;;;;2.53;0.55;;;;;;;14.00;100.00;101275.22;4980342;28;20042;-56
2022/10/02 10:13:36;;;;;;;5.70;1.95;;;;;;;14.14;100.00;101283.09;4987943;28;20053;-54
2022/10/02 10:16:34;;;;;;;3.67;0.82;;;;;;;14.44;100.00;101280.22;4989315;28;20034;-49
2022/10/02 10:19:05;;;;;;;2.95;0.30;;;;;;;14.63;100.00;101273.34;4988398;28;20120;-55
2022/10/02 10:21:33;;;;;;;6.07;0.82;;;;;;;14.70;100.00;101265.38;4986483;28;20121;-55
2022/10/02 10:24:22;;;;;;;10.07;0.90;;;;;;;14.78;100.00;101276.69;4988058;28;20042;-51
2022/10/02 10:27:08;;;;;;;3.30;0.38;;;;;;;14.85;100.00;101270.56;4989076;28;20537;-49
2022/10/02 10:29:52;;;;;;;2.15;0.40;;;;;;;14.83;100.00;101276.91;4996167;28;20077;-53
2022/10/02 10:32:30;;;;;;;4.22;1.42;;;;;;;14.97;100.00;101276.97;4992370;28;20033;-52
2022/10/02 10:35:24;;;;;;;11.10;2.45;;;;;;;15.17;100.00;101282.38;5004381;28;20843;-52
2022/10/02 10:40:59;;;;;;;7.75;0.82;;;;;;;15.01;100.00;101278.22;4998810;28;20516;-56
2022/10/02 10:44:13;;;;;;;3.17;1.05;;;;;;;14.53;100.00;101270.22;5001829;28;20107;-53
2022/10/02 10:46:53;;;;;;;4.82;0.50;;;;;;;14.23;100.00;101288.28;4990968;28;20042;-50
2022/10/02 10:49:37;;;;;;;4.63;0.70;;;;;;;14.01;100.00;101284.84;5003380;28;21936;-55
2022/10/02 10:52:10;;;;;;;4.93;0.38;;;;;;;13.97;100.00;101289.75;5001157;28;20048;-54
2022/10/02 10:55:00;;;;;;;4.05;0.55;;;;;;;14.11;100.00;101298.66;5004955;28;20029;-49
2022/10/02 10:57:42;;;;;;;5.18;0.20;;;;;;;14.54;100.00;101299.38;5003753;28;20061;-54
2022/10/02 11:00:29;;;;;;;;;;;;;;;14.80;100.00;101293.34;4997826;28;20033;-54
2022/10/02 11:03:20;;;;;;;3.72;0.57;;;;;;;14.97;100.00;101296.50;4991512;28;19921;-53
2022/10/02 11:05:56;;;;;;;5.32;0.52;;;;;;;15.22;100.00;101312.78;4995705;28;20041;-50
2022/10/02 11:08:59;;;;;;;8.93;0.70;;;;;;;15.53;100.00;101313.28;5003066;28;20084;-51
2022/10/02 11:11:57;;;;;;;2.00;0.73;;;;;;;15.67;100.00;101307.75;4997331;28;20022;-59
2022/10/02 11:14:34;;;;;;;9.73;1.95;;;;;;;15.59;100.00;101307.09;4988336;28;20052;-53
2022/10/02 11:17:17;;;;;;;6.68;0.30;;;;;;;15.71;100.00;101310.84;4996955;28;20069;-52
2022/10/02 11:20:02;;;;;;;9.15;1.88;;;;;;;15.80;100.00;101308.78;4994027;28;20081;-52
2022/10/02 11:22:50;;;;;;;3.95;0.70;;;;;;;15.84;100.00;101313.53;4991491;28;20125;-54
2022/10/02 11:25:44;;;;;;;5.43;1.55;;;;;;;15.92;100.00;101310.66;4983572;28;20052;-50
2022/10/02 11:28:29;;;;;;;2.72;0.93;;;;;;;16.12;100.00;101316.00;4990717;28;20026;-51
2022/10/02 11:31:22;;;;;;;2.05;0.40;;;;;;;16.39;100.00;101307.09;4997284;28;20133;-52
2022/10/02 11:34:06;;;;;;;2.97;0.57;;;;;;;16.37;100.00;101299.31;4997653;28;20034;-54
2022/10/02 11:36:41;;;;;;;8.57;2.05;;;;;;;16.28;100.00;101300.53;5008075;28;20121;-53
2022/10/02 11:39:07;;;;;;;4.40;0.60;;;;;;;16.32;100.00;101302.59;5009992;28;20061;-50
2022/10/02 11:41:52;;;;;;;7.55;1.02;;;;;;;16.43;100.00;101313.69;5008443;28;20068;-50
2022/10/02 11:44:39;;;;;;;4.07;0.30;;;;;;;16.52;100.00;101315.94;5011526;28;20034;-49
2022/10/02 11:47:35;;;;;;;2.30;0.25;;;;;;;16.69;100.00;101324.31;5017166;28;20430;-53
2022/10/02 11:50:17;;;;;;;4.47;1.23;;;;;;;16.98;100.00;101322.19;5008134;28;20029;-51
2022/10/02 11:53:05;;;;;;;3.00;0.38;;;;;;;17.05;100.00;101320.31;5008002;28;20489;-51
2022/10/02 11:55:54;;;;;;;2.20;0.13;;;;;;;17.06;100.00;101323.78;5008569;28;20041;-53
2022/10/02 11:58:52;;;;;;;3.03;0.73;;;;;;;16.76;100.00;101329.66;5007342;28;20034;-52
2022/10/02 12:01:21;;;;;;;2.20;1.02;;;;;;;16.45;100.00;101325.03;4994219;28;20447;-54
2022/10/02 12:04:10;;;;;;;3.70;0.93;;;;;;;16.60;100.00;101335.47;5008324;28;20506;-53
2022/10/02 12:07:07;;;;;;;5.75;0.60;;;;;;;16.93;100.00;101335.38;5007535;28;20014;-52
2022/10/02 12:09:53;;;;;;;2.97;1.17;;;;;;;17.27;100.00;101342.25;5010851;28;20364;-52
2022/10/02 12:12:43;;;;;;;2.50;0.40;;;;;;;17.29;100.00;101345.53;5005485;28;20042;-50
2022/10/02 12:15:36;;;;;;;8.35;0.95;;;;;;;17.31;100.00;101348.00;5005105;28;20034;-50
2022/10/02 12:18:21;;;;;;;5.03;1.08;;;;;;;17.28;100.00;101359.97;4998095;28;20030;-53
2022/10/02 12:27:21;;;;;;;5.20;1.83;;;;;;;17.62;100.00;101353.38;4997939;28;20080;-54
2022/10/02 12:30:06;;;;;;;4.18;0.50;;;;;;;17.62;100.00;101347.19;4996997;28;20029;-51